createdAt,value
2023-03-29T00:00:36.757Z,-2.60
2023-03-29T00:03:31.729Z,-2.60
2023-03-29T00:06:22.045Z,-2.60
2023-03-29T00:09:06.039Z,-2.60
2023-03-29T00:11:48.550Z,-2.60
2023-03-29T00:14:31.278Z,-2.60
2023-03-29T00:17:13.733Z,-2.70
2023-03-29T00:19:57.442Z,-2.70
2023-03-29T00:22:42.240Z,-2.70
2023-03-29T00:25:24.932Z,-2.80
2023-03-29T00:28:07.443Z,-2.80
2023-03-29T00:30:53.326Z,-2.80
2023-03-29T00:33:36.815Z,-2.80
2023-03-29T00:36:19.013Z,-2.90
2023-03-29T00:39:01.443Z,-2.90
2023-03-29T00:41:48.586Z,-3.00
2023-03-29T00:44:53.162Z,-3.00
2023-03-29T00:48:04.120Z,-3.00
2023-03-29T00:50:54.147Z,-3.10
2023-03-29T00:53:44.401Z,-3.20
2023-03-29T00:56:31.431Z,-3.30
2023-03-29T00:59:18.856Z,-3.30
2023-03-29T01:02:07.067Z,-3.30
2023-03-29T01:05:15.601Z,-3.30
2023-03-29T01:08:11.190Z,-3.40
2023-03-29T01:11:00.161Z,-3.50
2023-03-29T01:13:53.651Z,-3.60
2023-03-29T01:16:38.484Z,-3.60
2023-03-29T01:19:27.083Z,-3.60
2023-03-29T01:22:38.751Z,-3.70
2023-03-29T01:25:36.917Z,-3.80
2023-03-29T01:28:23.425Z,-3.80
2023-03-29T01:31:28.422Z,-3.70
2023-03-29T01:34:16.815Z,-3.80
2023-03-29T01:37:15.722Z,-3.70
2023-03-29T01:39:58.037Z,-3.60
2023-03-29T01:42:57.976Z,-3.60
2023-03-29T01:46:01.397Z,-3.60
2023-03-29T01:48:54.820Z,-3.70
2023-03-29T01:51:39.136Z,-3.80
2023-03-29T01:54:40.836Z,-3.80
2023-03-29T01:57:25.152Z,-3.80
2023-03-29T02:00:11.352Z,-3.80
2023-03-29T02:03:00.373Z,-3.90
2023-03-29T02:05:44.858Z,-3.90
2023-03-29T02:08:28.952Z,-3.90
2023-03-29T02:11:13.591Z,-3.90
2023-03-29T02:13:57.055Z,-3.90
2023-03-29T02:16:40.947Z,-3.90
2023-03-29T02:19:26.085Z,-3.90
2023-03-29T02:22:12.800Z,-3.90
2023-03-29T02:24:59.474Z,-4.00
2023-03-29T02:27:42.376Z,-4.00
2023-03-29T02:30:30.391Z,-4.00
2023-03-29T02:33:21.855Z,-4.00
2023-03-29T02:36:13.325Z,-4.00
2023-03-29T02:38:56.885Z,-4.10
2023-03-29T02:41:40.746Z,-4.20
2023-03-29T02:44:28.187Z,-4.30
2023-03-29T02:47:19.640Z,-4.40
2023-03-29T02:50:02.497Z,-4.40
2023-03-29T02:52:56.129Z,-4.40
2023-03-29T02:55:39.084Z,-4.50
2023-03-29T02:58:28.778Z,-4.60
2023-03-29T03:01:12.847Z,-4.60
2023-03-29T03:03:55.141Z,-4.60
2023-03-29T03:06:38.814Z,-4.60
2023-03-29T03:09:21.347Z,-4.50
2023-03-29T03:12:03.931Z,-4.50
2023-03-29T03:14:46.152Z,-4.50
2023-03-29T03:17:28.615Z,-4.50
2023-03-29T03:20:13.322Z,-4.50
2023-03-29T03:22:57.505Z,-4.50
2023-03-29T03:25:40.262Z,-4.60
2023-03-29T03:28:24.394Z,-4.60
2023-03-29T03:31:07.419Z,-4.60
2023-03-29T03:34:15.702Z,-4.70
2023-03-29T03:37:06.787Z,-4.60
2023-03-29T03:39:50.554Z,-4.60
2023-03-29T03:42:33.104Z,-4.60
2023-03-29T03:45:15.761Z,-4.60
2023-03-29T03:48:01.685Z,-4.60
2023-03-29T03:51:14.140Z,-4.60
2023-03-29T03:53:56.484Z,-4.70
2023-03-29T03:57:11.110Z,-4.70
2023-03-29T03:59:59.992Z,-4.60
2023-03-29T04:02:56.341Z,-4.60
2023-03-29T04:05:40.703Z,-4.60
2023-03-29T04:08:24.124Z,-4.70
2023-03-29T04:11:29.119Z,-4.70
2023-03-29T04:14:11.721Z,-4.70
2023-03-29T04:17:13.102Z,-4.70
2023-03-29T04:20:12.661Z,-4.70
2023-03-29T04:22:56.756Z,-4.60
2023-03-29T04:25:41.036Z,-4.60
2023-03-29T04:28:52.585Z,-4.60
2023-03-29T04:31:56.584Z,-4.60
2023-03-29T04:35:04.886Z,-4.60
2023-03-29T04:37:48.348Z,-4.70
2023-03-29T04:40:33.548Z,-4.70
2023-03-29T04:43:27.276Z,-4.60
2023-03-29T04:46:17.092Z,-4.70
2023-03-29T04:49:18.415Z,-4.60
2023-03-29T04:52:04.948Z,-4.60
2023-03-29T04:54:47.583Z,-4.60
2023-03-29T04:57:35.423Z,-4.70
2023-03-29T05:00:27.595Z,-4.70
2023-03-29T05:03:28.809Z,-4.50
2023-03-29T05:06:19.110Z,-4.30
2023-03-29T05:09:01.975Z,-4.00
2023-03-29T05:11:50.444Z,-3.60
2023-03-29T05:14:33.742Z,-3.10
2023-03-29T05:17:16.402Z,-2.50
2023-03-29T05:20:00.178Z,-2.10
2023-03-29T05:22:44.086Z,-1.70
2023-03-29T05:25:31.661Z,-1.30
2023-03-29T05:28:14.598Z,-0.80
2023-03-29T05:31:05.845Z,-0.50
2023-03-29T05:33:52.008Z,-0.10
2023-03-29T05:36:35.060Z,0.00
2023-03-29T05:39:19.726Z,0.20
2023-03-29T05:42:02.514Z,0.50
2023-03-29T05:44:56.749Z,0.70
2023-03-29T05:47:39.042Z,0.90
2023-03-29T05:50:21.816Z,0.90
2023-03-29T05:53:04.908Z,0.90
2023-03-29T05:55:47.904Z,0.80
2023-03-29T05:58:33.123Z,0.70
2023-03-29T06:01:18.118Z,0.70
2023-03-29T06:04:15.299Z,1.00
2023-03-29T06:07:07.147Z,1.10
2023-03-29T06:09:49.808Z,1.20
2023-03-29T06:12:33.290Z,1.30
2023-03-29T06:15:17.106Z,1.60
2023-03-29T06:18:03.812Z,1.70
2023-03-29T06:20:52.162Z,2.20
2023-03-29T06:23:36.471Z,2.40
2023-03-29T06:26:20.152Z,2.60
2023-03-29T06:29:04.348Z,2.80
2023-03-29T06:31:48.312Z,2.80
2023-03-29T06:34:51.021Z,3.00
2023-03-29T06:37:59.254Z,3.10
2023-03-29T06:41:02.536Z,3.20
2023-03-29T06:43:55.245Z,3.30
2023-03-29T06:46:40.874Z,3.40
2023-03-29T06:49:24.857Z,3.50
2023-03-29T06:52:25.049Z,3.40
2023-03-29T06:55:07.998Z,3.30
2023-03-29T06:57:52.787Z,3.50
2023-03-29T07:00:38.037Z,3.10
2023-03-29T07:03:36.039Z,3.40
2023-03-29T07:06:20.691Z,3.70
2023-03-29T07:09:06.778Z,3.80
2023-03-29T07:12:10.064Z,4.00
2023-03-29T07:14:53.585Z,4.00
2023-03-29T07:17:38.034Z,4.00
2023-03-29T07:20:23.654Z,4.10
2023-03-29T07:23:16.202Z,4.20
2023-03-29T07:26:00.389Z,4.20
2023-03-29T07:28:43.295Z,4.30
2023-03-29T07:31:26.034Z,4.30
2023-03-29T07:34:17.809Z,4.40
2023-03-29T07:37:00.363Z,4.50
2023-03-29T07:39:42.975Z,4.60
2023-03-29T07:42:46.115Z,4.70
2023-03-29T07:45:33.068Z,4.80
2023-03-29T07:48:20.310Z,5.10
2023-03-29T07:51:08.972Z,5.00
2023-03-29T07:54:03.268Z,4.90
2023-03-29T07:57:05.834Z,5.00
2023-03-29T07:59:56.927Z,5.10
2023-03-29T08:02:44.821Z,5.30
2023-03-29T08:05:40.074Z,5.50
2023-03-29T08:08:29.334Z,5.50
2023-03-29T08:11:20.676Z,5.60
2023-03-29T08:14:12.023Z,5.50
2023-03-29T08:17:12.947Z,5.30
2023-03-29T08:20:01.282Z,4.90
2023-03-29T08:22:43.901Z,4.90
2023-03-29T08:25:59.745Z,5.20
2023-03-29T08:28:43.967Z,5.60
2023-03-29T08:31:28.294Z,5.50
2023-03-29T08:34:12.069Z,5.50
2023-03-29T08:37:00.238Z,5.50
2023-03-29T08:39:52.203Z,5.70
2023-03-29T08:43:35.932Z,5.80
2023-03-29T08:46:54.444Z,5.90
2023-03-29T08:49:54.746Z,6.10
2023-03-29T08:52:53.360Z,5.90
2023-03-29T08:56:10.195Z,5.90
2023-03-29T08:59:34.909Z,6.20
2023-03-29T09:02:26.485Z,6.30
2023-03-29T09:05:37.903Z,6.40
2023-03-29T09:08:50.218Z,6.40
2023-03-29T09:11:46.468Z,6.60
2023-03-29T09:14:44.700Z,6.40
2023-03-29T09:17:38.035Z,6.30
2023-03-29T09:20:46.497Z,6.40
2023-03-29T09:23:47.614Z,6.70
2023-03-29T09:26:56.185Z,6.60
2023-03-29T09:30:11.575Z,6.60
2023-03-29T09:33:08.242Z,6.80
2023-03-29T09:36:36.345Z,6.90
2023-03-29T09:39:21.344Z,6.80
2023-03-29T09:42:09.396Z,6.50
2023-03-29T09:45:02.070Z,6.70
2023-03-29T09:48:10.436Z,6.80
2023-03-29T09:50:53.652Z,7.00
2023-03-29T09:53:36.889Z,6.70
2023-03-29T09:56:45.580Z,6.90
2023-03-29T09:59:32.203Z,7.00
2023-03-29T10:02:14.938Z,7.20
2023-03-29T10:05:03.991Z,7.20
2023-03-29T10:07:50.961Z,7.20
2023-03-29T10:10:35.412Z,7.30
2023-03-29T10:13:29.528Z,7.40
2023-03-29T10:16:29.381Z,7.40
2023-03-29T10:19:36.821Z,7.40
2023-03-29T10:22:26.455Z,7.50
2023-03-29T10:25:17.518Z,7.50
2023-03-29T10:28:33.082Z,7.50
2023-03-29T10:31:20.196Z,7.60
2023-03-29T10:34:06.507Z,7.70
2023-03-29T10:37:02.292Z,7.80
2023-03-29T10:39:45.799Z,7.70
2023-03-29T10:42:28.837Z,7.60
2023-03-29T10:45:30.382Z,7.70
2023-03-29T10:48:15.247Z,7.80
2023-03-29T10:51:00.937Z,7.80
2023-03-29T10:53:43.513Z,7.80
2023-03-29T10:56:42.606Z,7.80
2023-03-29T10:59:32.729Z,7.90
2023-03-29T11:02:45.432Z,7.90
2023-03-29T11:05:47.343Z,7.90
2023-03-29T11:08:54.023Z,7.90
2023-03-29T11:12:12.256Z,7.90
2023-03-29T11:15:00.874Z,7.90
2023-03-29T11:18:30.546Z,7.90
2023-03-29T11:21:35.923Z,8.00
2023-03-29T11:24:46.938Z,8.30
2023-03-29T11:27:48.247Z,8.20
2023-03-29T11:30:46.798Z,8.30
2023-03-29T11:34:23.072Z,8.40
2023-03-29T11:37:23.368Z,8.20
2023-03-29T11:40:21.257Z,8.20
2023-03-29T11:43:15.356Z,8.10
2023-03-29T11:46:18.877Z,8.00
2023-03-29T11:49:27.460Z,8.10
2023-03-29T11:52:17.684Z,8.20
2023-03-29T11:55:03.882Z,8.30
2023-03-29T11:58:10.126Z,8.30
2023-03-29T12:00:55.838Z,8.30
2023-03-29T12:03:52.609Z,8.40
2023-03-29T12:06:59.863Z,8.60
2023-03-29T12:09:58.280Z,8.60
2023-03-29T12:13:02.439Z,8.60
2023-03-29T12:15:59.992Z,8.50
2023-03-29T12:18:53.090Z,8.50
2023-03-29T12:21:37.244Z,8.50
2023-03-29T12:24:21.258Z,8.60
2023-03-29T12:27:26.187Z,8.70
2023-03-29T12:30:27.477Z,8.60
2023-03-29T12:33:41.451Z,8.70
2023-03-29T12:37:05.858Z,8.70
2023-03-29T12:40:19.891Z,8.80
2023-03-29T12:43:27.182Z,8.70
2023-03-29T12:46:33.876Z,8.60
2023-03-29T12:49:36.076Z,8.50
2023-03-29T12:52:30.592Z,8.50
2023-03-29T12:55:36.231Z,8.60
2023-03-29T12:58:25.923Z,8.70
2023-03-29T13:01:26.835Z,8.60
2023-03-29T13:04:12.301Z,8.50
2023-03-29T13:07:04.207Z,8.60
2023-03-29T13:09:59.536Z,8.70
2023-03-29T13:12:46.061Z,8.80
2023-03-29T13:15:37.476Z,8.90
2023-03-29T13:18:36.118Z,9.00
2023-03-29T13:21:51.035Z,8.80
2023-03-29T13:24:42.851Z,8.80
2023-03-29T13:27:39.696Z,8.90
2023-03-29T13:30:52.872Z,8.90
2023-03-29T13:34:00.670Z,8.90
2023-03-29T13:37:04.411Z,8.80
2023-03-29T13:39:53.528Z,8.80
2023-03-29T13:42:36.465Z,8.80
2023-03-29T13:45:22.378Z,8.80
2023-03-29T13:48:49.339Z,8.70
2023-03-29T13:51:39.664Z,8.70
2023-03-29T13:54:48.183Z,8.90
2023-03-29T13:57:39.280Z,8.80
2023-03-29T14:00:32.962Z,8.90
2023-03-29T14:03:18.178Z,8.90
2023-03-29T14:06:05.849Z,9.00
2023-03-29T14:08:51.832Z,9.00
2023-03-29T14:11:35.346Z,9.00
2023-03-29T14:14:24.751Z,9.20
2023-03-29T14:17:08.060Z,9.10
2023-03-29T14:19:51.372Z,9.10
2023-03-29T14:22:34.480Z,9.00
2023-03-29T14:25:19.532Z,9.10
2023-03-29T14:28:01.903Z,9.00
2023-03-29T14:30:50.142Z,8.90
2023-03-29T14:33:34.799Z,8.80
2023-03-29T14:36:21.333Z,9.00
2023-03-29T14:39:16.114Z,9.00
2023-03-29T14:41:59.104Z,9.00
2023-03-29T14:44:43.063Z,8.80
2023-03-29T14:47:31.233Z,8.70
2023-03-29T14:50:21.448Z,8.70
2023-03-29T14:53:06.270Z,8.60
2023-03-29T14:55:53.594Z,8.50
2023-03-29T14:58:36.568Z,8.50
2023-03-29T15:01:24.823Z,8.50
2023-03-29T15:04:11.618Z,8.50
2023-03-29T15:06:55.168Z,8.50
2023-03-29T15:09:40.028Z,8.50
2023-03-29T15:12:22.498Z,8.50
2023-03-29T15:15:07.834Z,8.40
2023-03-29T15:17:52.333Z,8.30
2023-03-29T15:20:39.052Z,8.20
2023-03-29T15:23:24.206Z,8.10
2023-03-29T15:26:22.178Z,8.10
2023-03-29T15:29:23.527Z,8.10
2023-03-29T15:32:06.919Z,8.10
2023-03-29T15:34:59.385Z,8.10
2023-03-29T15:37:43.530Z,8.10
2023-03-29T15:40:28.235Z,8.20
2023-03-29T15:43:11.584Z,8.10
2023-03-29T15:45:53.867Z,8.10
2023-03-29T15:48:36.654Z,8.10
2023-03-29T15:51:18.986Z,8.10
2023-03-29T15:54:01.452Z,8.10
2023-03-29T15:57:01.661Z,8.10
2023-03-29T15:59:46.675Z,8.00
2023-03-29T16:02:29.269Z,8.00
2023-03-29T16:05:15.273Z,8.00
2023-03-29T16:08:00.110Z,7.90
2023-03-29T16:10:47.251Z,8.00
2023-03-29T16:13:29.861Z,8.00
2023-03-29T16:16:15.208Z,8.00
2023-03-29T16:18:57.482Z,8.00
2023-03-29T16:21:43.790Z,7.90
2023-03-29T16:24:29.362Z,8.00
2023-03-29T16:27:11.881Z,7.90
2023-03-29T16:29:54.088Z,7.90
2023-03-29T16:32:38.795Z,7.80
2023-03-29T16:35:27.075Z,7.70
2023-03-29T16:38:09.772Z,7.60
2023-03-29T16:40:52.654Z,7.60
2023-03-29T16:43:38.563Z,7.50
2023-03-29T16:46:21.194Z,7.50
2023-03-29T16:49:04.407Z,7.40
2023-03-29T16:51:47.423Z,7.30
2023-03-29T16:54:31.748Z,7.30
2023-03-29T16:57:14.011Z,7.10
2023-03-29T16:59:56.850Z,7.00
2023-03-29T17:02:39.250Z,6.90
2023-03-29T17:05:22.260Z,6.80
2023-03-29T17:08:04.538Z,6.70
2023-03-29T17:10:51.760Z,6.60
2023-03-29T17:13:34.287Z,6.50
2023-03-29T17:16:17.990Z,6.40
2023-03-29T17:19:00.643Z,6.30
2023-03-29T17:21:43.440Z,6.20
2023-03-29T17:24:25.850Z,6.10
2023-03-29T17:27:08.629Z,6.00
2023-03-29T17:29:51.081Z,6.00
2023-03-29T17:32:33.911Z,5.90
2023-03-29T17:35:16.397Z,5.80
2023-03-29T17:37:59.067Z,5.70
2023-03-29T17:40:41.903Z,5.70
2023-03-29T17:43:24.587Z,5.60
2023-03-29T17:46:07.257Z,5.50
2023-03-29T17:48:51.098Z,5.40
2023-03-29T17:51:33.660Z,5.40
2023-03-29T17:54:17.135Z,5.30
2023-03-29T17:56:59.802Z,5.20
2023-03-29T17:59:42.764Z,5.10
2023-03-29T18:02:25.059Z,5.10
2023-03-29T18:05:10.608Z,5.00
2023-03-29T18:07:52.939Z,5.00
2023-03-29T18:10:36.885Z,4.90
2023-03-29T18:13:25.598Z,4.80
2023-03-29T18:16:09.379Z,4.80
2023-03-29T18:18:52.296Z,4.70
2023-03-29T18:21:35.002Z,4.60
2023-03-29T18:24:17.620Z,4.60
2023-03-29T18:27:00.568Z,4.60
2023-03-29T18:29:44.682Z,4.50
2023-03-29T18:32:27.320Z,4.40
2023-03-29T18:35:10.826Z,4.40
2023-03-29T18:37:53.719Z,4.30
2023-03-29T18:40:36.196Z,4.30
2023-03-29T18:43:19.482Z,4.30
2023-03-29T18:46:02.354Z,4.20
2023-03-29T18:48:45.266Z,4.20
2023-03-29T18:51:29.404Z,4.20
2023-03-29T18:54:12.078Z,4.20
2023-03-29T18:56:55.589Z,4.10
2023-03-29T18:59:39.972Z,4.10
2023-03-29T19:02:22.670Z,4.00
2023-03-29T19:05:06.235Z,4.00
2023-03-29T19:07:48.693Z,4.00
2023-03-29T19:10:31.746Z,4.00
2023-03-29T19:13:14.228Z,3.90
2023-03-29T19:15:56.941Z,4.00
2023-03-29T19:18:39.583Z,3.90
2023-03-29T19:21:22.364Z,4.00
2023-03-29T19:24:05.222Z,4.00
2023-03-29T19:26:50.015Z,4.00
2023-03-29T19:29:32.448Z,4.00
2023-03-29T19:32:15.763Z,4.10
2023-03-29T19:34:58.522Z,4.10
2023-03-29T19:37:41.499Z,4.10
2023-03-29T19:40:23.964Z,4.10
2023-03-29T19:43:06.942Z,4.20
2023-03-29T19:45:50.757Z,4.20
2023-03-29T19:48:33.441Z,4.20
2023-03-29T19:51:15.894Z,4.20
2023-03-29T19:53:58.597Z,4.20
2023-03-29T19:56:42.729Z,4.20
2023-03-29T19:59:26.242Z,4.10
2023-03-29T20:02:13.299Z,4.10
2023-03-29T20:04:57.798Z,4.10
2023-03-29T20:07:40.115Z,4.10
2023-03-29T20:10:24.595Z,4.10
2023-03-29T20:13:07.524Z,4.10
2023-03-29T20:15:49.980Z,4.10
2023-03-29T20:18:32.241Z,4.00
2023-03-29T20:21:16.691Z,4.00
2023-03-29T20:23:59.394Z,4.00
2023-03-29T20:26:41.844Z,3.90
2023-03-29T20:29:24.086Z,3.90
2023-03-29T20:32:06.914Z,3.80
2023-03-29T20:34:49.423Z,3.80
2023-03-29T20:37:32.833Z,3.90
2023-03-29T20:40:15.718Z,4.00
2023-03-29T20:42:58.237Z,4.20
2023-03-29T20:45:52.571Z,4.30
2023-03-29T20:48:38.281Z,4.40
2023-03-29T20:51:21.928Z,4.50
2023-03-29T20:54:05.922Z,4.50
2023-03-29T20:56:48.873Z,4.50
2023-03-29T20:59:31.657Z,4.50
2023-03-29T21:02:21.327Z,4.50
2023-03-29T21:05:04.100Z,4.40
2023-03-29T21:07:48.063Z,4.40
2023-03-29T21:10:30.927Z,4.30
2023-03-29T21:13:13.420Z,4.30
2023-03-29T21:15:55.930Z,4.20
2023-03-29T21:18:39.349Z,4.20
2023-03-29T21:21:22.994Z,4.10
2023-03-29T21:24:05.643Z,4.10
2023-03-29T21:26:48.130Z,4.00
2023-03-29T21:29:30.278Z,3.90
2023-03-29T21:32:12.691Z,3.90
2023-03-29T21:34:54.953Z,3.80
2023-03-29T21:37:37.619Z,3.80
2023-03-29T21:40:19.919Z,3.70
2023-03-29T21:43:02.501Z,3.70
2023-03-29T21:45:49.716Z,3.70
2023-03-29T21:48:32.846Z,3.70
2023-03-29T21:51:15.193Z,3.70
2023-03-29T21:53:57.885Z,3.70
2023-03-29T21:56:40.245Z,3.80
2023-03-29T21:59:22.912Z,3.80
2023-03-29T22:02:05.599Z,3.80
2023-03-29T22:04:48.306Z,3.80
2023-03-29T22:07:30.577Z,3.80
2023-03-29T22:10:13.197Z,3.90
2023-03-29T22:12:57.127Z,3.90
2023-03-29T22:15:39.602Z,3.90
2023-03-29T22:18:22.010Z,3.90
2023-03-29T22:21:05.598Z,3.90
2023-03-29T22:23:49.959Z,3.90
2023-03-29T22:26:33.066Z,3.90
2023-03-29T22:29:15.215Z,3.90
2023-03-29T22:31:57.674Z,4.00
2023-03-29T22:34:40.148Z,4.00
2023-03-29T22:37:22.741Z,4.00
2023-03-29T22:40:09.117Z,4.00
2023-03-29T22:42:51.648Z,4.00
2023-03-29T22:45:33.833Z,4.00
2023-03-29T22:48:16.492Z,4.00
2023-03-29T22:50:58.870Z,4.00
2023-03-29T22:53:41.493Z,4.00
2023-03-29T22:56:24.888Z,4.00
2023-03-29T22:59:07.355Z,4.10
2023-03-29T23:01:50.105Z,4.00
2023-03-29T23:04:32.798Z,4.00
2023-03-29T23:07:15.021Z,4.10
2023-03-29T23:09:58.312Z,4.10
2023-03-29T23:12:42.920Z,4.10
2023-03-29T23:15:26.273Z,4.10
2023-03-29T23:18:13.152Z,4.10
2023-03-29T23:20:57.755Z,4.10
2023-03-29T23:23:40.336Z,4.10
2023-03-29T23:26:23.225Z,4.10
2023-03-29T23:29:05.494Z,4.10
2023-03-29T23:31:49.132Z,4.10
2023-03-29T23:34:32.103Z,4.10
2023-03-29T23:37:14.684Z,4.20
2023-03-29T23:39:56.841Z,4.20
2023-03-29T23:42:39.865Z,4.20
2023-03-29T23:45:22.149Z,4.20
2023-03-29T23:48:04.678Z,4.20
2023-03-29T23:50:47.274Z,4.20
2023-03-29T23:53:31.505Z,4.20
2023-03-29T23:56:13.787Z,4.20
2023-03-29T23:58:56.264Z,4.20
